sensor_id;sensor_type;location;lat;lon;timestamp;temperature;humidity
79439;DHT22;68889;48.232;10.110;2023-09-19T00:00:42;16.20;97.00
79439;DHT22;68889;48.232;10.110;2023-09-19T00:03:09;16.20;96.90
79439;DHT22;68889;48.232;10.110;2023-09-19T00:05:35;16.30;96.90
79439;DHT22;68889;48.232;10.110;2023-09-19T00:08:02;16.40;97.10
79439;DHT22;68889;48.232;10.110;2023-09-19T00:10:32;16.40;97.30
79439;DHT22;68889;48.232;10.110;2023-09-19T00:13:01;16.40;96.90
79439;DHT22;68889;48.232;10.110;2023-09-19T00:15:36;16.50;96.80
79439;DHT22;68889;48.232;10.110;2023-09-19T00:18:03;16.50;96.70
79439;DHT22;68889;48.232;10.110;2023-09-19T00:20:29;16.50;96.80
79439;DHT22;68889;48.232;10.110;2023-09-19T00:22:55;16.50;96.70
79439;DHT22;68889;48.232;10.110;2023-09-19T00:25:21;16.50;96.80
79439;DHT22;68889;48.232;10.110;2023-09-19T00:27:47;16.50;96.70
79439;DHT22;68889;48.232;10.110;2023-09-19T00:30:17;16.50;96.90
79439;DHT22;68889;48.232;10.110;2023-09-19T00:32:47;16.50;96.90
79439;DHT22;68889;48.232;10.110;2023-09-19T00:35:14;16.40;97.10
79439;DHT22;68889;48.232;10.110;2023-09-19T00:37:40;16.40;96.80
79439;DHT22;68889;48.232;10.110;2023-09-19T00:40:07;16.40;96.90
79439;DHT22;68889;48.232;10.110;2023-09-19T00:42:40;16.40;96.90
79439;DHT22;68889;48.232;10.110;2023-09-19T00:45:09;16.40;97.10
79439;DHT22;68889;48.232;10.110;2023-09-19T00:47:42;16.30;97.10
79439;DHT22;68889;48.232;10.110;2023-09-19T00:50:10;16.30;97.20
79439;DHT22;68889;48.232;10.110;2023-09-19T00:52:40;16.30;97.20
79439;DHT22;68889;48.232;10.110;2023-09-19T00:55:08;16.20;97.40
79439;DHT22;68889;48.232;10.110;2023-09-19T00:57:35;16.20;97.60
79439;DHT22;68889;48.232;10.110;2023-09-19T01:30:43;16.10;98.20
79439;DHT22;68889;48.232;10.110;2023-09-19T01:33:09;16.10;98.10
79439;DHT22;68889;48.232;10.110;2023-09-19T01:35:38;16.20;97.70
79439;DHT22;68889;48.232;10.110;2023-09-19T01:38:05;16.20;97.80
79439;DHT22;68889;48.232;10.110;2023-09-19T01:40:40;16.20;97.80
79439;DHT22;68889;48.232;10.110;2023-09-19T01:43:34;16.20;97.80
79439;DHT22;68889;48.232;10.110;2023-09-19T01:48:43;16.10;97.80
79439;DHT22;68889;48.232;10.110;2023-09-19T01:51:20;16.20;97.70
79439;DHT22;68889;48.232;10.110;2023-09-19T01:54:01;16.10;97.80
79439;DHT22;68889;48.232;10.110;2023-09-19T01:56:36;16.20;97.50
79439;DHT22;68889;48.232;10.110;2023-09-19T01:59:11;16.20;97.50
79439;DHT22;68889;48.232;10.110;2023-09-19T02:01:37;16.20;97.20
79439;DHT22;68889;48.232;10.110;2023-09-19T02:04:03;16.20;97.10
79439;DHT22;68889;48.232;10.110;2023-09-19T02:06:29;16.30;97.20
79439;DHT22;68889;48.232;10.110;2023-09-19T02:08:55;16.30;97.30
79439;DHT22;68889;48.232;10.110;2023-09-19T02:11:21;16.30;96.90
79439;DHT22;68889;48.232;10.110;2023-09-19T02:13:46;16.30;97.00
79439;DHT22;68889;48.232;10.110;2023-09-19T02:16:12;16.40;96.60
79439;DHT22;68889;48.232;10.110;2023-09-19T02:18:39;16.40;96.70
79439;DHT22;68889;48.232;10.110;2023-09-19T02:21:04;16.40;96.70
79439;DHT22;68889;48.232;10.110;2023-09-19T02:23:32;16.40;96.90
79439;DHT22;68889;48.232;10.110;2023-09-19T02:25:58;16.40;96.60
79439;DHT22;68889;48.232;10.110;2023-09-19T02:28:26;16.40;96.90
79439;DHT22;68889;48.232;10.110;2023-09-19T02:30:55;16.40;96.40
79439;DHT22;68889;48.232;10.110;2023-09-19T02:33:21;16.50;96.30
79439;DHT22;68889;48.232;10.110;2023-09-19T02:35:47;16.50;96.00
79439;DHT22;68889;48.232;10.110;2023-09-19T02:38:13;16.50;95.70
79439;DHT22;68889;48.232;10.110;2023-09-19T02:40:40;16.60;95.40
79439;DHT22;68889;48.232;10.110;2023-09-19T02:43:05;16.60;95.70
79439;DHT22;68889;48.232;10.110;2023-09-19T02:45:32;16.50;95.80
79439;DHT22;68889;48.232;10.110;2023-09-19T02:47:57;16.50;95.70
79439;DHT22;68889;48.232;10.110;2023-09-19T02:50:23;16.50;95.60
79439;DHT22;68889;48.232;10.110;2023-09-19T02:52:49;16.50;95.80
79439;DHT22;68889;48.232;10.110;2023-09-19T02:55:16;16.50;95.60
79439;DHT22;68889;48.232;10.110;2023-09-19T02:57:52;16.60;95.50
79439;DHT22;68889;48.232;10.110;2023-09-19T03:00:18;16.60;95.50
79439;DHT22;68889;48.232;10.110;2023-09-19T03:02:50;16.60;95.60
79439;DHT22;68889;48.232;10.110;2023-09-19T03:05:16;16.60;95.20
79439;DHT22;68889;48.232;10.110;2023-09-19T03:07:41;16.60;94.90
79439;DHT22;68889;48.232;10.110;2023-09-19T03:10:09;16.60;95.20
79439;DHT22;68889;48.232;10.110;2023-09-19T03:12:35;16.60;95.00
79439;DHT22;68889;48.232;10.110;2023-09-19T03:15:01;16.70;95.20
79439;DHT22;68889;48.232;10.110;2023-09-19T03:17:26;16.60;95.00
79439;DHT22;68889;48.232;10.110;2023-09-19T03:19:52;16.60;95.70
79439;DHT22;68889;48.232;10.110;2023-09-19T03:22:19;16.60;95.70
79439;DHT22;68889;48.232;10.110;2023-09-19T03:24:45;16.60;95.70
79439;DHT22;68889;48.232;10.110;2023-09-19T03:27:12;16.50;96.10
79439;DHT22;68889;48.232;10.110;2023-09-19T03:29:39;16.50;95.90
79439;DHT22;68889;48.232;10.110;2023-09-19T03:32:05;16.50;96.10
79439;DHT22;68889;48.232;10.110;2023-09-19T03:34:31;16.50;96.00
79439;DHT22;68889;48.232;10.110;2023-09-19T03:36:56;16.50;95.80
79439;DHT22;68889;48.232;10.110;2023-09-19T03:39:22;16.40;95.60
79439;DHT22;68889;48.232;10.110;2023-09-19T03:41:48;16.40;95.50
79439;DHT22;68889;48.232;10.110;2023-09-19T03:44:15;16.40;95.80
79439;DHT22;68889;48.232;10.110;2023-09-19T03:46:40;16.40;95.70
79439;DHT22;68889;48.232;10.110;2023-09-19T03:49:06;16.30;95.90
79439;DHT22;68889;48.232;10.110;2023-09-19T03:51:31;16.20;96.10
79439;DHT22;68889;48.232;10.110;2023-09-19T03:53:59;16.20;96.20
79439;DHT22;68889;48.232;10.110;2023-09-19T03:56:25;16.10;96.30
79439;DHT22;68889;48.232;10.110;2023-09-19T03:58:51;16.10;96.50
79439;DHT22;68889;48.232;10.110;2023-09-19T04:01:16;16.00;96.60
79439;DHT22;68889;48.232;10.110;2023-09-19T04:03:44;15.90;96.80
79439;DHT22;68889;48.232;10.110;2023-09-19T04:06:16;15.90;96.90
79439;DHT22;68889;48.232;10.110;2023-09-19T04:08:42;15.90;96.90
79439;DHT22;68889;48.232;10.110;2023-09-19T04:11:09;15.90;97.00
79439;DHT22;68889;48.232;10.110;2023-09-19T04:13:35;15.80;97.00
79439;DHT22;68889;48.232;10.110;2023-09-19T04:16:01;15.80;97.00
79439;DHT22;68889;48.232;10.110;2023-09-19T04:18:29;15.80;97.00
79439;DHT22;68889;48.232;10.110;2023-09-19T04:20:57;15.80;97.10
79439;DHT22;68889;48.232;10.110;2023-09-19T04:23:22;15.90;97.10
79439;DHT22;68889;48.232;10.110;2023-09-19T04:25:48;15.90;97.20
79439;DHT22;68889;48.232;10.110;2023-09-19T04:28:14;16.00;96.60
79439;DHT22;68889;48.232;10.110;2023-09-19T04:30:41;16.00;96.40
79439;DHT22;68889;48.232;10.110;2023-09-19T04:33:06;16.10;96.40
79439;DHT22;68889;48.232;10.110;2023-09-19T04:35:32;16.10;95.70
79439;DHT22;68889;48.232;10.110;2023-09-19T04:37:58;16.20;95.50
79439;DHT22;68889;48.232;10.110;2023-09-19T04:40:24;16.20;95.30
79439;DHT22;68889;48.232;10.110;2023-09-19T04:42:58;16.20;95.40
79439;DHT22;68889;48.232;10.110;2023-09-19T04:45:24;16.20;95.10
79439;DHT22;68889;48.232;10.110;2023-09-19T04:47:49;16.30;95.30
79439;DHT22;68889;48.232;10.110;2023-09-19T04:50:15;16.30;94.60
79439;DHT22;68889;48.232;10.110;2023-09-19T04:52:43;16.30;95.20
79439;DHT22;68889;48.232;10.110;2023-09-19T04:55:13;16.30;94.70
79439;DHT22;68889;48.232;10.110;2023-09-19T04:57:45;16.30;94.10
79439;DHT22;68889;48.232;10.110;2023-09-19T05:00:22;16.40;94.50
79439;DHT22;68889;48.232;10.110;2023-09-19T05:02:50;16.40;94.50
79439;DHT22;68889;48.232;10.110;2023-09-19T05:05:19;16.40;94.50
79439;DHT22;68889;48.232;10.110;2023-09-19T05:07:45;16.40;94.00
79439;DHT22;68889;48.232;10.110;2023-09-19T05:10:11;16.40;93.80
79439;DHT22;68889;48.232;10.110;2023-09-19T05:12:37;16.40;94.00
79439;DHT22;68889;48.232;10.110;2023-09-19T05:15:07;16.40;93.80
79439;DHT22;68889;48.232;10.110;2023-09-19T05:17:34;16.40;93.40
79439;DHT22;68889;48.232;10.110;2023-09-19T05:20:00;16.40;94.00
79439;DHT22;68889;48.232;10.110;2023-09-19T05:22:37;16.40;93.00
79439;DHT22;68889;48.232;10.110;2023-09-19T05:25:05;16.40;93.50
79439;DHT22;68889;48.232;10.110;2023-09-19T05:27:31;16.50;93.60
79439;DHT22;68889;48.232;10.110;2023-09-19T05:29:57;16.40;92.90
79439;DHT22;68889;48.232;10.110;2023-09-19T05:32:22;16.40;93.20
79439;DHT22;68889;48.232;10.110;2023-09-19T05:34:49;16.40;93.50
79439;DHT22;68889;48.232;10.110;2023-09-19T05:37:18;16.40;93.10
79439;DHT22;68889;48.232;10.110;2023-09-19T05:39:44;16.40;93.70
79439;DHT22;68889;48.232;10.110;2023-09-19T05:42:09;16.40;93.60
79439;DHT22;68889;48.232;10.110;2023-09-19T05:44:35;16.40;93.60
79439;DHT22;68889;48.232;10.110;2023-09-19T05:47:01;16.40;93.70
79439;DHT22;68889;48.232;10.110;2023-09-19T05:49:27;16.40;93.50
79439;DHT22;68889;48.232;10.110;2023-09-19T05:51:53;16.50;93.20
79439;DHT22;68889;48.232;10.110;2023-09-19T05:54:20;16.60;93.90
79439;DHT22;68889;48.232;10.110;2023-09-19T05:56:46;16.60;93.40
79439;DHT22;68889;48.232;10.110;2023-09-19T05:59:12;16.70;92.70
79439;DHT22;68889;48.232;10.110;2023-09-19T06:01:39;16.70;92.60
79439;DHT22;68889;48.232;10.110;2023-09-19T06:04:05;16.70;92.90
79439;DHT22;68889;48.232;10.110;2023-09-19T06:06:30;16.70;92.50
79439;DHT22;68889;48.232;10.110;2023-09-19T06:09:02;16.80;92.60
79439;DHT22;68889;48.232;10.110;2023-09-19T06:11:31;16.80;92.40
79439;DHT22;68889;48.232;10.110;2023-09-19T06:14:02;16.80;92.80
79439;DHT22;68889;48.232;10.110;2023-09-19T06:16:38;16.80;92.70
79439;DHT22;68889;48.232;10.110;2023-09-19T06:19:20;16.80;92.30
79439;DHT22;68889;48.232;10.110;2023-09-19T06:21:53;16.80;92.60
79439;DHT22;68889;48.232;10.110;2023-09-19T07:29:05;18.50;86.90
79439;DHT22;68889;48.232;10.110;2023-09-19T07:31:32;18.70;87.10
79439;DHT22;68889;48.232;10.110;2023-09-19T07:33:57;18.90;87.30
79439;DHT22;68889;48.232;10.110;2023-09-19T07:36:23;19.10;86.20
79439;DHT22;68889;48.232;10.110;2023-09-19T07:38:49;19.20;85.10
79439;DHT22;68889;48.232;10.110;2023-09-19T07:41:15;19.20;84.30
79439;DHT22;68889;48.232;10.110;2023-09-19T07:43:40;19.20;85.20
79439;DHT22;68889;48.232;10.110;2023-09-19T07:46:07;19.20;85.40
79439;DHT22;68889;48.232;10.110;2023-09-19T07:48:33;19.30;83.40
79439;DHT22;68889;48.232;10.110;2023-09-19T07:51:06;19.50;84.20
79439;DHT22;68889;48.232;10.110;2023-09-19T07:53:32;19.50;82.30
79439;DHT22;68889;48.232;10.110;2023-09-19T07:56:06;19.70;82.80
79439;DHT22;68889;48.232;10.110;2023-09-19T07:58:32;19.70;81.20
79439;DHT22;68889;48.232;10.110;2023-09-19T08:01:05;19.50;81.90
79439;DHT22;68889;48.232;10.110;2023-09-19T08:03:32;19.50;81.70
79439;DHT22;68889;48.232;10.110;2023-09-19T08:05:58;19.50;81.60
79439;DHT22;68889;48.232;10.110;2023-09-19T08:08:23;19.70;83.00
79439;DHT22;68889;48.232;10.110;2023-09-19T08:11:07;19.80;81.80
79439;DHT22;68889;48.232;10.110;2023-09-19T08:13:38;20.00;80.30
79439;DHT22;68889;48.232;10.110;2023-09-19T08:16:09;20.10;79.80
79439;DHT22;68889;48.232;10.110;2023-09-19T08:18:35;20.10;81.30
79439;DHT22;68889;48.232;10.110;2023-09-19T08:21:00;20.10;79.90
79439;DHT22;68889;48.232;10.110;2023-09-19T08:23:27;20.10;82.40
79439;DHT22;68889;48.232;10.110;2023-09-19T08:25:56;20.30;80.90
79439;DHT22;68889;48.232;10.110;2023-09-19T08:28:21;20.30;78.90
79439;DHT22;68889;48.232;10.110;2023-09-19T08:30:50;20.40;79.30
79439;DHT22;68889;48.232;10.110;2023-09-19T08:33:16;20.40;79.80
79439;DHT22;68889;48.232;10.110;2023-09-19T08:35:42;20.40;79.20
79439;DHT22;68889;48.232;10.110;2023-09-19T08:38:08;20.50;77.80
79439;DHT22;68889;48.232;10.110;2023-09-19T08:40:40;20.70;78.80
79439;DHT22;68889;48.232;10.110;2023-09-19T08:43:07;20.60;78.80
79439;DHT22;68889;48.232;10.110;2023-09-19T08:45:33;20.60;79.30
79439;DHT22;68889;48.232;10.110;2023-09-19T08:48:10;20.70;77.70
79439;DHT22;68889;48.232;10.110;2023-09-19T08:51:10;20.70;77.60
79439;DHT22;68889;48.232;10.110;2023-09-19T08:56:27;20.50;79.00
79439;DHT22;68889;48.232;10.110;2023-09-19T08:58:57;20.40;79.70
79439;DHT22;68889;48.232;10.110;2023-09-19T09:01:28;20.50;78.90
79439;DHT22;68889;48.232;10.110;2023-09-19T09:03:55;20.60;79.40
79439;DHT22;68889;48.232;10.110;2023-09-19T09:06:22;20.80;78.10
79439;DHT22;68889;48.232;10.110;2023-09-19T09:08:50;21.10;78.50
79439;DHT22;68889;48.232;10.110;2023-09-19T09:11:16;21.60;77.20
79439;DHT22;68889;48.232;10.110;2023-09-19T09:13:46;21.80;74.50
79439;DHT22;68889;48.232;10.110;2023-09-19T09:16:13;21.50;75.70
79439;DHT22;68889;48.232;10.110;2023-09-19T09:18:39;20.90;75.50
79439;DHT22;68889;48.232;10.110;2023-09-19T09:21:05;20.50;76.30
79439;DHT22;68889;48.232;10.110;2023-09-19T09:23:31;20.30;78.10
79439;DHT22;68889;48.232;10.110;2023-09-19T09:25:58;20.20;78.10
79439;DHT22;68889;48.232;10.110;2023-09-19T09:28:33;20.50;78.20
79439;DHT22;68889;48.232;10.110;2023-09-19T09:31:00;21.00;77.50
79439;DHT22;68889;48.232;10.110;2023-09-19T09:33:34;21.50;75.00
79439;DHT22;68889;48.232;10.110;2023-09-19T09:36:00;21.70;75.00
79439;DHT22;68889;48.232;10.110;2023-09-19T09:38:29;21.70;75.40
79439;DHT22;68889;48.232;10.110;2023-09-19T09:40:59;21.80;74.30
79439;DHT22;68889;48.232;10.110;2023-09-19T09:43:34;22.00;73.40
79439;DHT22;68889;48.232;10.110;2023-09-19T09:46:08;21.90;74.20
79439;DHT22;68889;48.232;10.110;2023-09-19T09:51:48;21.70;73.60
79439;DHT22;68889;48.232;10.110;2023-09-19T09:54:24;21.40;73.80
79439;DHT22;68889;48.232;10.110;2023-09-19T09:57:00;21.50;74.60
79439;DHT22;68889;48.232;10.110;2023-09-19T09:59:57;21.90;73.20
79439;DHT22;68889;48.232;10.110;2023-09-19T10:02:29;22.10;73.90
79439;DHT22;68889;48.232;10.110;2023-09-19T10:04:57;21.80;73.20
79439;DHT22;68889;48.232;10.110;2023-09-19T10:07:41;21.40;75.30
79439;DHT22;68889;48.232;10.110;2023-09-19T10:10:15;21.30;74.10
79439;DHT22;68889;48.232;10.110;2023-09-19T15:08:03;25.00;61.50
79439;DHT22;68889;48.232;10.110;2023-09-19T15:10:29;25.00;60.90
79439;DHT22;68889;48.232;10.110;2023-09-19T15:12:57;24.90;61.80
79439;DHT22;68889;48.232;10.110;2023-09-19T15:15:22;24.90;61.60
79439;DHT22;68889;48.232;10.110;2023-09-19T15:17:48;24.90;61.10
79439;DHT22;68889;48.232;10.110;2023-09-19T15:20:14;24.90;62.20
79439;DHT22;68889;48.232;10.110;2023-09-19T15:22:40;24.70;61.10
79439;DHT22;68889;48.232;10.110;2023-09-19T15:25:06;24.70;62.00
79439;DHT22;68889;48.232;10.110;2023-09-19T15:27:32;24.60;63.10
79439;DHT22;68889;48.232;10.110;2023-09-19T15:29:59;24.10;63.80
79439;DHT22;68889;48.232;10.110;2023-09-19T15:32:26;23.70;65.60
79439;DHT22;68889;48.232;10.110;2023-09-19T15:34:53;23.60;65.50
79439;DHT22;68889;48.232;10.110;2023-09-19T15:37:18;23.20;65.10
79439;DHT22;68889;48.232;10.110;2023-09-19T15:39:45;23.00;67.20
79439;DHT22;68889;48.232;10.110;2023-09-19T15:42:11;23.10;67.20
79439;DHT22;68889;48.232;10.110;2023-09-19T15:44:37;23.10;66.50
79439;DHT22;68889;48.232;10.110;2023-09-19T15:47:03;23.20;67.40
79439;DHT22;68889;48.232;10.110;2023-09-19T15:49:29;23.40;66.80
79439;DHT22;68889;48.232;10.110;2023-09-19T15:51:55;23.70;65.60
79439;DHT22;68889;48.232;10.110;2023-09-19T15:54:20;23.70;64.80
79439;DHT22;68889;48.232;10.110;2023-09-19T15:56:47;23.90;64.30
79439;DHT22;68889;48.232;10.110;2023-09-19T15:59:14;24.10;63.50
79439;DHT22;68889;48.232;10.110;2023-09-19T16:01:41;24.30;63.40
79439;DHT22;68889;48.232;10.110;2023-09-19T16:04:08;24.40;63.50
79439;DHT22;68889;48.232;10.110;2023-09-19T16:06:38;24.20;63.00
79439;DHT22;68889;48.232;10.110;2023-09-19T16:09:04;24.00;65.40
79439;DHT22;68889;48.232;10.110;2023-09-19T16:11:35;24.00;63.80
79439;DHT22;68889;48.232;10.110;2023-09-19T16:14:00;24.00;63.10
79439;DHT22;68889;48.232;10.110;2023-09-19T16:16:28;24.10;64.00
79439;DHT22;68889;48.232;10.110;2023-09-19T16:18:59;24.00;63.60
79439;DHT22;68889;48.232;10.110;2023-09-19T16:21:31;24.00;65.80
79439;DHT22;68889;48.232;10.110;2023-09-19T16:23:58;23.80;64.70
79439;DHT22;68889;48.232;10.110;2023-09-19T16:26:24;23.70;64.70
79439;DHT22;68889;48.232;10.110;2023-09-19T16:28:53;23.60;65.60
79439;DHT22;68889;48.232;10.110;2023-09-19T16:31:20;23.40;66.40
79439;DHT22;68889;48.232;10.110;2023-09-19T16:33:47;23.20;66.70
79439;DHT22;68889;48.232;10.110;2023-09-19T16:36:15;23.10;67.20
79439;DHT22;68889;48.232;10.110;2023-09-19T16:38:44;23.10;68.00
79439;DHT22;68889;48.232;10.110;2023-09-19T16:41:10;22.90;68.00
79439;DHT22;68889;48.232;10.110;2023-09-19T16:43:38;22.70;68.30
79439;DHT22;68889;48.232;10.110;2023-09-19T16:46:05;22.40;69.30
79439;DHT22;68889;48.232;10.110;2023-09-19T16:48:36;22.20;69.40
79439;DHT22;68889;48.232;10.110;2023-09-19T16:51:04;21.90;70.30
79439;DHT22;68889;48.232;10.110;2023-09-19T16:53:30;21.70;71.30
79439;DHT22;68889;48.232;10.110;2023-09-19T16:56:01;21.60;71.60
79439;DHT22;68889;48.232;10.110;2023-09-19T16:58:27;21.50;72.00
79439;DHT22;68889;48.232;10.110;2023-09-19T17:00:58;21.30;72.50
79439;DHT22;68889;48.232;10.110;2023-09-19T17:03:23;21.20;73.50
79439;DHT22;68889;48.232;10.110;2023-09-19T17:05:50;21.10;73.40
79439;DHT22;68889;48.232;10.110;2023-09-19T17:08:18;21.00;73.90
79439;DHT22;68889;48.232;10.110;2023-09-19T17:11:09;20.90;74.00
79439;DHT22;68889;48.232;10.110;2023-09-19T17:13:45;20.70;74.20
79439;DHT22;68889;48.232;10.110;2023-09-19T17:16:21;20.60;74.10
79439;DHT22;68889;48.232;10.110;2023-09-19T17:18:55;20.40;75.10
79439;DHT22;68889;48.232;10.110;2023-09-19T17:21:22;20.30;75.40
79439;DHT22;68889;48.232;10.110;2023-09-19T17:23:48;20.20;75.50
79439;DHT22;68889;48.232;10.110;2023-09-19T17:26:19;20.10;76.00
79439;DHT22;68889;48.232;10.110;2023-09-19T17:28:50;20.00;76.30
79439;DHT22;68889;48.232;10.110;2023-09-19T17:31:21;19.90;77.50
79439;DHT22;68889;48.232;10.110;2023-09-19T17:33:48;19.80;77.40
79439;DHT22;68889;48.232;10.110;2023-09-19T17:36:24;19.60;78.90
79439;DHT22;68889;48.232;10.110;2023-09-19T17:38:55;19.50;79.30
79439;DHT22;68889;48.232;10.110;2023-09-19T17:41:22;19.40;81.30
79439;DHT22;68889;48.232;10.110;2023-09-19T17:43:55;19.20;81.60
79439;DHT22;68889;48.232;10.110;2023-09-19T17:46:22;19.10;82.20
79439;DHT22;68889;48.232;10.110;2023-09-19T17:48:53;19.00;82.40
79439;DHT22;68889;48.232;10.110;2023-09-19T17:51:20;18.90;83.00
79439;DHT22;68889;48.232;10.110;2023-09-19T17:53:46;18.80;83.30
79439;DHT22;68889;48.232;10.110;2023-09-19T17:56:16;18.70;83.60
79439;DHT22;68889;48.232;10.110;2023-09-19T17:58:45;18.60;83.80
79439;DHT22;68889;48.232;10.110;2023-09-19T18:01:18;18.50;84.10
79439;DHT22;68889;48.232;10.110;2023-09-19T18:03:49;18.40;84.60
79439;DHT22;68889;48.232;10.110;2023-09-19T18:06:21;18.30;84.90
79439;DHT22;68889;48.232;10.110;2023-09-19T18:08:47;18.30;85.20
79439;DHT22;68889;48.232;10.110;2023-09-19T18:11:16;18.20;85.50
79439;DHT22;68889;48.232;10.110;2023-09-19T18:13:48;18.10;85.20
79439;DHT22;68889;48.232;10.110;2023-09-19T18:16:16;18.00;85.70
79439;DHT22;68889;48.232;10.110;2023-09-19T18:18:51;17.90;85.90
79439;DHT22;68889;48.232;10.110;2023-09-19T18:21:20;17.90;86.50
79439;DHT22;68889;48.232;10.110;2023-09-19T18:23:54;17.80;84.90
79439;DHT22;68889;48.232;10.110;2023-09-19T18:26:20;17.80;84.60
79439;DHT22;68889;48.232;10.110;2023-09-19T18:28:46;17.80;84.40
79439;DHT22;68889;48.232;10.110;2023-09-19T18:31:12;17.80;85.20
79439;DHT22;68889;48.232;10.110;2023-09-19T18:33:37;17.70;84.80
79439;DHT22;68889;48.232;10.110;2023-09-19T18:36:06;17.60;85.40
79439;DHT22;68889;48.232;10.110;2023-09-19T18:38:37;17.60;85.60
79439;DHT22;68889;48.232;10.110;2023-09-19T18:41:06;17.50;85.80
79439;DHT22;68889;48.232;10.110;2023-09-19T18:43:32;17.50;86.00
79439;DHT22;68889;48.232;10.110;2023-09-19T18:46:00;17.50;86.30
79439;DHT22;68889;48.232;10.110;2023-09-19T18:48:29;17.40;86.40
79439;DHT22;68889;48.232;10.110;2023-09-19T18:51:03;17.40;86.40
79439;DHT22;68889;48.232;10.110;2023-09-19T18:53:29;17.40;86.90
79439;DHT22;68889;48.232;10.110;2023-09-19T18:56:09;17.30;87.40
79439;DHT22;68889;48.232;10.110;2023-09-19T18:58:37;17.20;87.00
79439;DHT22;68889;48.232;10.110;2023-09-19T19:01:17;17.20;87.10
79439;DHT22;68889;48.232;10.110;2023-09-19T19:03:44;17.20;87.10
79439;DHT22;68889;48.232;10.110;2023-09-19T19:06:14;17.20;87.10
79439;DHT22;68889;48.232;10.110;2023-09-19T19:08:41;17.20;88.10
79439;DHT22;68889;48.232;10.110;2023-09-19T19:11:09;17.10;88.60
79439;DHT22;68889;48.232;10.110;2023-09-19T19:13:40;17.00;88.90
79439;DHT22;68889;48.232;10.110;2023-09-19T19:16:09;17.00;89.00
79439;DHT22;68889;48.232;10.110;2023-09-19T19:18:38;17.00;89.20
79439;DHT22;68889;48.232;10.110;2023-09-19T19:21:06;16.90;89.30
79439;DHT22;68889;48.232;10.110;2023-09-19T19:23:41;16.90;89.30
79439;DHT22;68889;48.232;10.110;2023-09-19T19:26:08;16.90;89.50
79439;DHT22;68889;48.232;10.110;2023-09-19T19:28:34;16.90;89.50
79439;DHT22;68889;48.232;10.110;2023-09-19T19:31:01;16.80;89.30
79439;DHT22;68889;48.232;10.110;2023-09-19T19:33:28;16.70;89.80
79439;DHT22;68889;48.232;10.110;2023-09-19T19:36:03;16.50;90.10
79439;DHT22;68889;48.232;10.110;2023-09-19T19:38:30;16.50;90.00
79439;DHT22;68889;48.232;10.110;2023-09-19T19:41:01;16.40;89.90
79439;DHT22;68889;48.232;10.110;2023-09-19T19:43:31;16.40;90.30
79439;DHT22;68889;48.232;10.110;2023-09-19T19:45:58;16.30;90.70
79439;DHT22;68889;48.232;10.110;2023-09-19T19:48:25;16.30;90.80
79439;DHT22;68889;48.232;10.110;2023-09-19T19:50:51;16.30;91.20
79439;DHT22;68889;48.232;10.110;2023-09-19T19:53:19;16.20;90.70
79439;DHT22;68889;48.232;10.110;2023-09-19T19:55:45;16.20;91.20
79439;DHT22;68889;48.232;10.110;2023-09-19T19:58:12;16.20;91.80
79439;DHT22;68889;48.232;10.110;2023-09-19T20:00:41;16.10;91.80
79439;DHT22;68889;48.232;10.110;2023-09-19T20:03:08;16.00;91.50
79439;DHT22;68889;48.232;10.110;2023-09-19T20:05:38;16.00;92.10
79439;DHT22;68889;48.232;10.110;2023-09-19T20:08:05;15.90;92.50
79439;DHT22;68889;48.232;10.110;2023-09-19T20:10:31;15.90;92.30
79439;DHT22;68889;48.232;10.110;2023-09-19T20:12:56;15.80;92.70
79439;DHT22;68889;48.232;10.110;2023-09-19T20:15:22;15.80;91.80
79439;DHT22;68889;48.232;10.110;2023-09-19T20:17:50;15.80;92.30
79439;DHT22;68889;48.232;10.110;2023-09-19T20:20:16;15.80;92.60
79439;DHT22;68889;48.232;10.110;2023-09-19T20:22:44;15.80;92.40
79439;DHT22;68889;48.232;10.110;2023-09-19T20:25:11;15.70;92.00
79439;DHT22;68889;48.232;10.110;2023-09-19T20:27:40;15.70;92.50
79439;DHT22;68889;48.232;10.110;2023-09-19T20:30:07;15.70;92.30
79439;DHT22;68889;48.232;10.110;2023-09-19T20:32:34;15.70;93.40
79439;DHT22;68889;48.232;10.110;2023-09-19T20:35:01;15.60;93.20
79439;DHT22;68889;48.232;10.110;2023-09-19T20:37:28;15.60;93.80
79439;DHT22;68889;48.232;10.110;2023-09-19T20:39:54;15.70;93.90
79439;DHT22;68889;48.232;10.110;2023-09-19T20:42:20;15.70;93.80
79439;DHT22;68889;48.232;10.110;2023-09-19T20:44:49;15.80;93.60
79439;DHT22;68889;48.232;10.110;2023-09-19T20:47:14;15.80;93.80
79439;DHT22;68889;48.232;10.110;2023-09-19T20:49:40;15.80;93.50
79439;DHT22;68889;48.232;10.110;2023-09-19T20:52:06;15.80;93.30
79439;DHT22;68889;48.232;10.110;2023-09-19T20:54:32;15.90;93.40
79439;DHT22;68889;48.232;10.110;2023-09-19T20:56:57;15.80;93.40
79439;DHT22;68889;48.232;10.110;2023-09-19T20:59:23;15.90;93.40
79439;DHT22;68889;48.232;10.110;2023-09-19T21:01:52;15.80;93.30
79439;DHT22;68889;48.232;10.110;2023-09-19T21:04:18;15.80;93.10
79439;DHT22;68889;48.232;10.110;2023-09-19T21:06:44;15.80;92.40
79439;DHT22;68889;48.232;10.110;2023-09-19T21:09:11;15.80;92.90
79439;DHT22;68889;48.232;10.110;2023-09-19T21:11:37;15.70;93.50
79439;DHT22;68889;48.232;10.110;2023-09-19T21:14:02;15.70;93.20
79439;DHT22;68889;48.232;10.110;2023-09-19T21:16:29;15.70;93.00
79439;DHT22;68889;48.232;10.110;2023-09-19T21:18:55;15.70;93.20
79439;DHT22;68889;48.232;10.110;2023-09-19T21:21:21;15.70;93.90
79439;DHT22;68889;48.232;10.110;2023-09-19T21:23:47;15.60;93.80
79439;DHT22;68889;48.232;10.110;2023-09-19T21:26:15;15.60;93.90
79439;DHT22;68889;48.232;10.110;2023-09-19T21:28:41;15.60;94.20
79439;DHT22;68889;48.232;10.110;2023-09-19T21:31:09;15.50;94.20
79439;DHT22;68889;48.232;10.110;2023-09-19T21:33:40;15.50;93.90
79439;DHT22;68889;48.232;10.110;2023-09-19T21:36:10;15.40;94.30
79439;DHT22;68889;48.232;10.110;2023-09-19T21:38:40;15.40;94.50
79439;DHT22;68889;48.232;10.110;2023-09-19T21:41:13;15.40;94.30
79439;DHT22;68889;48.232;10.110;2023-09-19T21:43:48;15.50;94.80
79439;DHT22;68889;48.232;10.110;2023-09-19T21:46:15;15.50;94.70
79439;DHT22;68889;48.232;10.110;2023-09-19T21:48:41;15.50;94.80
79439;DHT22;68889;48.232;10.110;2023-09-19T21:51:08;15.60;94.30
79439;DHT22;68889;48.232;10.110;2023-09-19T21:53:34;15.70;94.10
79439;DHT22;68889;48.232;10.110;2023-09-19T21:56:02;15.70;94.50
79439;DHT22;68889;48.232;10.110;2023-09-19T21:58:29;15.70;94.40
79439;DHT22;68889;48.232;10.110;2023-09-19T22:00:57;15.60;93.80